Pagrindinis puslapis
METAR-TAF:

METAR-TAF

Oro uostai :

Urfa, Turkija

platuma: 37-27N, ilguma: 38-54E, Aukštis: 823 m

Dabartinis oras

Ataskaita buvo paskelbta 33 minutes, ne 22:20 UTC
Vėjas 13 kt iš Šiaurės
Temperatūra 17°C
Drėgmė 32%
Slėgis 1017 hPa
Matomumas 10 km arba daugiau
nėra debesų žemiau 1500 m ir nėra kamuolinių lietaus debesų

METAR: LTCS 242220Z 36013KT CAVOK 17/M00 Q1017 RMK RWY22 32010KT 2CI180

Laikas: 01:53 (22:53 UTC)

Prognozė

Ataskaita buvo paskelbta 6 valandos ir 13 minutes, ne 16:40 UTC
Prognozė galioja nuo 24 metu 18 UTC su 25 metu 18 UTC
Vėjas 12 kt iš Vakarų
Matomumas 10 km arba daugiau
nėra debesų žemiau 1500 m ir nėra kamuolinių lietaus debesų
Tapsmas
nuo 24 metu 20 UTC su 24 metu 22 UTC
Vėjas 2 kt nuo kintamojo kryptimis
Tapsmas
nuo 25 metu 02 UTC su 25 metu 04 UTC
Vėjas 12 kt iš Šiaurės

TAF: LTCS 241640Z 2418/2518 28012KT CAVOK BECMG 2420/2422 VRB02KT BECMG 2502/2504 01012KT

Orai ataskaitas ir orų prognozės (METAR, TAF).

turimą stotys yra geltonos ir raudonos taškus žemėlapyje.

Perkelti pele per norėdami pamatyti stoties vardą.

Tada spustelėkite, norėdami matyti oro stebėjimo ir prognozės.

Norėdami pakeisti žemėlapį: spustelėkite ant žalios mygtukų su juodo kryžiaus žemyn,; žalią mygtuką su brūkšneliu, jei norite nutolinti; arba žalių rodyklių gretimoms žemėlapius.


METAR-TAF: